createdAt,value
2022-12-09T00:01:44.434Z,100790.41
2022-12-09T00:04:48.376Z,100793.88
2022-12-09T00:07:53.546Z,100791.31
2022-12-09T00:10:57.207Z,100791.34
2022-12-09T00:14:01.701Z,100785.34
2022-12-09T00:17:05.558Z,100787.06
2022-12-09T00:20:11.375Z,100792.22
2022-12-09T00:23:17.177Z,100795.66
2022-12-09T00:26:23.584Z,100793.97
2022-12-09T00:29:27.128Z,100793.09
2022-12-09T00:32:30.871Z,100795.66
2022-12-09T00:35:34.822Z,100795.66
2022-12-09T00:38:40.041Z,100790.50
2022-12-09T00:41:43.634Z,100790.50
2022-12-09T00:44:47.222Z,100789.69
2022-12-09T00:47:51.102Z,100786.16
2022-12-09T00:50:54.969Z,100791.34
2022-12-09T00:54:00.103Z,100793.06
2022-12-09T00:57:04.503Z,100794.75
2022-12-09T01:00:10.889Z,100792.16
2022-12-09T01:03:16.199Z,100785.25
2022-12-09T01:06:23.854Z,100788.72
2022-12-09T01:09:28.971Z,100782.66
2022-12-09T01:12:34.957Z,100784.38
2022-12-09T01:15:39.559Z,100786.13
2022-12-09T01:18:43.409Z,100789.59
2022-12-09T01:21:47.221Z,100787.91
2022-12-09T01:24:52.477Z,100790.50
2022-12-09T01:27:56.159Z,100793.09
2022-12-09T01:31:08.147Z,100793.09
2022-12-09T01:34:11.885Z,100789.66
2022-12-09T01:37:16.239Z,100791.31
2022-12-09T01:40:21.368Z,100785.31
2022-12-09T01:43:25.139Z,100789.56
2022-12-09T01:46:28.948Z,100789.56
2022-12-09T01:49:43.324Z,100788.72
2022-12-09T01:52:49.889Z,100793.78
2022-12-09T01:55:58.679Z,100792.78
2022-12-09T01:59:12.862Z,100792.78
2022-12-09T02:02:20.429Z,100796.13
2022-12-09T02:05:25.999Z,100794.31
2022-12-09T02:08:29.841Z,100786.53
2022-12-09T02:11:52.188Z,100777.84
2022-12-09T02:15:04.687Z,100781.22
2022-12-09T02:18:19.830Z,100778.53
2022-12-09T02:21:32.478Z,100774.94
2022-12-09T02:24:47.420Z,100769.69
2022-12-09T02:28:25.902Z,100767.09
2022-12-09T02:31:52.579Z,100769.66
2022-12-09T02:35:04.954Z,100758.44
2022-12-09T02:38:15.075Z,100761.75
2022-12-09T02:41:25.011Z,100765.91
2022-12-09T02:44:29.042Z,100771.84
2022-12-09T02:47:37.637Z,100766.72
2022-12-09T02:50:48.689Z,100769.44
2022-12-09T02:54:00.358Z,100763.34
2022-12-09T02:57:14.658Z,100771.13
2022-12-09T03:00:19.211Z,100758.28
2022-12-09T03:03:23.102Z,100760.00
2022-12-09T03:06:37.340Z,100759.97
2022-12-09T03:09:49.032Z,100753.09
2022-12-09T03:13:03.845Z,100759.94
2022-12-09T03:16:15.741Z,100762.59
2022-12-09T03:19:27.251Z,100758.34
2022-12-09T03:22:37.028Z,100756.66
2022-12-09T03:25:47.249Z,100761.88
2022-12-09T03:28:55.916Z,100755.09
2022-12-09T03:32:01.123Z,100760.13
2022-12-09T03:35:10.668Z,100753.38
2022-12-09T03:38:22.282Z,100753.41
2022-12-09T03:41:31.719Z,100754.25
2022-12-09T03:44:43.233Z,100746.59
2022-12-09T03:47:47.048Z,100756.88
2022-12-09T03:50:59.533Z,100745.78
2022-12-09T03:54:15.236Z,100750.97
2022-12-09T03:57:21.953Z,100760.44
2022-12-09T04:00:25.998Z,100747.72
2022-12-09T04:03:30.201Z,100744.19
2022-12-09T04:06:34.481Z,100745.03
2022-12-09T04:09:39.673Z,100744.19
2022-12-09T04:12:43.392Z,100742.44
2022-12-09T04:15:46.995Z,100747.69
2022-12-09T04:18:51.198Z,100744.31
2022-12-09T04:21:55.065Z,100733.97
2022-12-09T04:25:00.186Z,100734.84
2022-12-09T04:28:04.190Z,100742.56
2022-12-09T04:31:11.804Z,100731.47
2022-12-09T04:34:15.574Z,100736.56
2022-12-09T04:37:19.215Z,100726.28
2022-12-09T04:40:24.866Z,100726.25
2022-12-09T04:43:29.038Z,100728.72
2022-12-09T04:46:33.236Z,100727.88
2022-12-09T04:49:37.000Z,100727.88
2022-12-09T04:52:40.966Z,100730.47
2022-12-09T04:55:46.173Z,100721.00
2022-12-09T04:58:51.857Z,100720.88
2022-12-09T05:01:55.548Z,100720.75
2022-12-09T05:05:01.640Z,100730.22
2022-12-09T05:08:06.049Z,100743.91
2022-12-09T05:11:12.259Z,100736.13
2022-12-09T05:14:16.431Z,100733.56
2022-12-09T05:17:20.371Z,100736.97
2022-12-09T05:20:28.079Z,100728.34
2022-12-09T05:23:31.922Z,100730.84
2022-12-09T05:26:37.901Z,100720.53
2022-12-09T05:29:42.488Z,100728.19
2022-12-09T05:32:46.298Z,100722.09
2022-12-09T05:35:52.983Z,100731.44
2022-12-09T05:38:57.833Z,100735.69
2022-12-09T05:42:03.144Z,100731.28
2022-12-09T05:45:08.269Z,100742.44
2022-12-09T05:48:12.573Z,100735.53
2022-12-09T05:51:23.270Z,100731.28
2022-12-09T05:54:28.062Z,100730.41
2022-12-09T05:57:35.308Z,100735.63
2022-12-09T06:00:39.753Z,100734.66
2022-12-09T06:03:43.869Z,100731.06
2022-12-09T06:06:48.087Z,100729.34
2022-12-09T06:09:52.032Z,100724.16
2022-12-09T06:12:58.372Z,100726.72
2022-12-09T06:16:05.429Z,100729.16
2022-12-09T06:19:12.993Z,100719.69
2022-12-09T06:22:16.847Z,100723.13
2022-12-09T06:25:21.019Z,100719.63
2022-12-09T06:28:26.296Z,100717.84
2022-12-09T06:31:31.013Z,100721.38
2022-12-09T06:34:35.667Z,100716.19
2022-12-09T06:37:39.728Z,100726.38
2022-12-09T06:40:44.239Z,100718.44
2022-12-09T06:43:49.668Z,100726.19
2022-12-09T06:46:53.845Z,100723.72
2022-12-09T06:50:07.214Z,100719.47
2022-12-09T06:53:11.893Z,100727.22
2022-12-09T06:56:16.975Z,100730.69
2022-12-09T06:59:22.297Z,100731.47
2022-12-09T07:02:28.061Z,100734.25
2022-12-09T07:05:35.348Z,100727.41
2022-12-09T07:08:39.830Z,100732.56
2022-12-09T07:11:48.288Z,100734.34
2022-12-09T07:14:54.155Z,100741.16
2022-12-09T07:17:57.883Z,100746.28
2022-12-09T07:21:09.986Z,100749.66
2022-12-09T07:24:14.606Z,100747.19
2022-12-09T07:27:19.806Z,100751.50
2022-12-09T07:30:25.119Z,100748.09
2022-12-09T07:33:29.595Z,100742.06
2022-12-09T07:36:36.616Z,100745.41
2022-12-09T07:39:40.636Z,100751.31
2022-12-09T07:42:44.672Z,100755.66
2022-12-09T07:45:50.745Z,100755.53
2022-12-09T07:48:56.191Z,100774.31
2022-12-09T07:52:00.126Z,100770.81
2022-12-09T07:55:04.890Z,100775.16
2022-12-09T07:58:09.487Z,100766.53
2022-12-09T08:01:17.354Z,100764.88
2022-12-09T08:04:21.724Z,100770.09
2022-12-09T08:07:25.727Z,100777.00
2022-12-09T08:10:30.839Z,100776.97
2022-12-09T08:13:34.728Z,100780.41
2022-12-09T08:16:40.791Z,100782.13
2022-12-09T08:19:45.116Z,100771.88
2022-12-09T08:22:49.315Z,100778.00
2022-12-09T08:25:55.210Z,100779.81
2022-12-09T08:28:59.326Z,100775.63
2022-12-09T08:32:06.138Z,100779.22
2022-12-09T08:35:15.238Z,100780.97
2022-12-09T08:38:19.196Z,100780.22
2022-12-09T08:41:36.316Z,100787.19
2022-12-09T08:44:41.639Z,100788.25
2022-12-09T08:47:47.793Z,100788.28
2022-12-09T08:50:51.749Z,100772.84
2022-12-09T08:53:55.894Z,100775.44
2022-12-09T08:57:00.436Z,100773.00
2022-12-09T09:00:06.367Z,100773.06
2022-12-09T09:03:12.170Z,100772.13
2022-12-09T09:06:17.291Z,100774.66
2022-12-09T09:09:24.341Z,100782.97
2022-12-09T09:12:28.661Z,100769.38
2022-12-09T09:15:33.555Z,100778.00
2022-12-09T09:18:39.365Z,100788.94
2022-12-09T09:21:43.797Z,100778.00
2022-12-09T09:24:48.401Z,100782.22
2022-12-09T09:27:52.351Z,100770.28
2022-12-09T09:31:01.798Z,100773.00
2022-12-09T09:34:07.498Z,100772.28
2022-12-09T09:37:11.444Z,100775.63
2022-12-09T09:40:16.303Z,100774.84
2022-12-09T09:43:27.859Z,100783.50
2022-12-09T09:46:44.220Z,100778.50
2022-12-09T09:49:59.620Z,100769.16
2022-12-09T09:53:16.874Z,100766.47
2022-12-09T09:56:29.442Z,100764.03
2022-12-09T09:59:46.165Z,100765.88
2022-12-09T10:03:01.260Z,100764.97
2022-12-09T10:06:23.184Z,100762.50
2022-12-09T10:09:42.686Z,100764.25
2022-12-09T10:13:08.311Z,100768.72
2022-12-09T10:16:19.490Z,100764.47
2022-12-09T10:19:34.535Z,100763.59
2022-12-09T10:22:46.760Z,100757.69
2022-12-09T10:25:55.984Z,100751.59
2022-12-09T10:29:15.462Z,100749.91
2022-12-09T10:32:23.257Z,100756.00
2022-12-09T10:35:30.827Z,100756.78
2022-12-09T10:38:43.243Z,100759.38
2022-12-09T10:42:11.285Z,100762.84
2022-12-09T10:46:15.205Z,100759.50
2022-12-09T10:49:04.047Z,100755.94
2022-12-09T10:52:08.528Z,100756.81
2022-12-09T10:55:31.519Z,100755.00
2022-12-09T10:58:35.310Z,100761.72
2022-12-09T11:01:51.690Z,100756.66
2022-12-09T11:04:56.144Z,100766.22
2022-12-09T11:08:00.989Z,100759.31
2022-12-09T11:11:06.911Z,100758.47
2022-12-09T11:14:28.637Z,100760.25
2022-12-09T11:17:36.211Z,100759.44
2022-12-09T11:20:40.982Z,100755.91
2022-12-09T11:24:02.536Z,100754.16
2022-12-09T11:27:28.131Z,100753.28
2022-12-09T11:30:36.477Z,100747.16
2022-12-09T11:33:52.126Z,100751.50
2022-12-09T11:37:02.606Z,100748.78
2022-12-09T11:40:16.666Z,100742.84
2022-12-09T11:43:21.769Z,100748.06
2022-12-09T11:46:30.177Z,100742.00
2022-12-09T11:49:44.598Z,100744.66
2022-12-09T11:53:05.935Z,100741.19
2022-12-09T11:56:18.553Z,100749.84
2022-12-09T11:59:36.365Z,100748.00
2022-12-09T12:02:49.663Z,100754.03
2022-12-09T12:05:56.084Z,100758.31
2022-12-09T12:09:08.078Z,100748.09
2022-12-09T12:12:24.239Z,100757.56
2022-12-09T12:15:40.623Z,100754.94
2022-12-09T12:18:53.115Z,100748.91
2022-12-09T12:22:34.691Z,100748.09
2022-12-09T12:25:53.301Z,100751.56
2022-12-09T12:29:29.143Z,100744.69
2022-12-09T12:33:53.114Z,100746.47
2022-12-09T12:36:40.986Z,100744.66
2022-12-09T12:39:57.661Z,100749.81
2022-12-09T12:43:37.704Z,100748.06
2022-12-09T12:47:04.594Z,100744.59
2022-12-09T12:50:48.403Z,100742.84
2022-12-09T12:54:00.440Z,100736.88
2022-12-09T12:57:17.361Z,100735.19
2022-12-09T13:00:25.447Z,100739.44
2022-12-09T13:03:39.921Z,100733.47
2022-12-09T13:06:51.736Z,100736.03
2022-12-09T13:10:03.769Z,100729.94
2022-12-09T13:13:18.804Z,100732.56
2022-12-09T13:16:30.564Z,100728.38
2022-12-09T13:19:43.024Z,100730.06
2022-12-09T13:22:58.929Z,100737.66
2022-12-09T13:26:25.273Z,100730.75
2022-12-09T13:29:43.824Z,100734.16
2022-12-09T13:33:22.785Z,100734.22
2022-12-09T13:36:38.556Z,100729.88
2022-12-09T13:39:59.753Z,100729.94
2022-12-09T13:43:22.726Z,100722.22
2022-12-09T13:46:29.264Z,100717.06
2022-12-09T13:49:41.014Z,100717.97
2022-12-09T13:52:51.466Z,100712.78
2022-12-09T13:56:00.194Z,100702.50
2022-12-09T13:59:32.802Z,100710.31
2022-12-09T14:02:43.915Z,100708.56
2022-12-09T14:05:59.578Z,100704.31
2022-12-09T14:09:19.870Z,100711.22
2022-12-09T14:13:18.849Z,100708.66
2022-12-09T14:16:36.059Z,100713.84
2022-12-09T14:19:56.458Z,100715.56
2022-12-09T14:23:20.387Z,100714.72
2022-12-09T14:26:36.006Z,100713.81
2022-12-09T14:29:57.812Z,100706.97
2022-12-09T14:33:02.880Z,100716.38
2022-12-09T14:36:28.053Z,100721.47
2022-12-09T14:39:44.916Z,100723.22
2022-12-09T14:42:56.731Z,100715.47
2022-12-09T14:46:05.059Z,100713.78
2022-12-09T14:49:18.983Z,100720.66
2022-12-09T14:52:30.259Z,100717.25
2022-12-09T14:55:41.419Z,100718.97
2022-12-09T14:58:50.108Z,100723.28
2022-12-09T15:01:57.950Z,100724.13
2022-12-09T15:05:03.785Z,100724.13
2022-12-09T15:08:07.749Z,100713.84
2022-12-09T15:11:18.032Z,100729.56
2022-12-09T15:14:28.302Z,100733.81
2022-12-09T15:17:39.126Z,100733.72
2022-12-09T15:20:49.367Z,100731.09
2022-12-09T15:23:53.394Z,100730.19
2022-12-09T15:26:59.977Z,100733.53
2022-12-09T15:30:23.261Z,100743.84
2022-12-09T15:33:32.029Z,100730.03
2022-12-09T15:36:41.125Z,100728.28
2022-12-09T15:39:52.243Z,100733.44
2022-12-09T15:43:00.907Z,100741.16
2022-12-09T15:46:05.890Z,100742.91
2022-12-09T15:49:15.184Z,100749.75
2022-12-09T15:52:24.044Z,100753.97
2022-12-09T15:55:36.766Z,100751.38
2022-12-09T15:58:46.325Z,100752.22
2022-12-09T16:01:54.135Z,100747.84
2022-12-09T16:05:04.236Z,100749.59
2022-12-09T16:08:07.979Z,100751.38
2022-12-09T16:11:13.399Z,100744.44
2022-12-09T16:14:19.611Z,100747.09
2022-12-09T16:17:27.093Z,100753.00
2022-12-09T16:20:39.178Z,100753.81
2022-12-09T16:23:49.437Z,100756.41
2022-12-09T16:26:56.493Z,100749.38
2022-12-09T16:30:12.000Z,100746.00
2022-12-09T16:33:20.212Z,100752.88
2022-12-09T16:36:30.559Z,100757.06
2022-12-09T16:39:38.161Z,100753.53
2022-12-09T16:42:42.032Z,100750.97
2022-12-09T16:45:51.057Z,100754.38
2022-12-09T16:48:56.452Z,100747.50
2022-12-09T16:52:03.522Z,100755.31
2022-12-09T16:55:19.919Z,100750.13
2022-12-09T16:58:24.673Z,100750.16
2022-12-09T17:01:33.782Z,100756.16
2022-12-09T17:04:38.904Z,100762.94
2022-12-09T17:07:44.420Z,100765.44
2022-12-09T17:10:49.095Z,100770.59
2022-12-09T17:13:53.666Z,100768.88
2022-12-09T17:16:57.513Z,100770.63
2022-12-09T17:20:01.454Z,100780.09
2022-12-09T17:23:06.979Z,100780.06
2022-12-09T17:26:14.858Z,100786.19
2022-12-09T17:29:18.818Z,100787.00
2022-12-09T17:32:24.283Z,100789.59
2022-12-09T17:35:27.985Z,100791.28
2022-12-09T17:38:33.207Z,100796.44
2022-12-09T17:41:37.072Z,100794.75
2022-12-09T17:44:42.140Z,100799.03
2022-12-09T17:47:46.386Z,100803.31
2022-12-09T17:50:50.897Z,100806.56
2022-12-09T17:53:56.695Z,100806.63
2022-12-09T17:57:01.384Z,100815.28
2022-12-09T18:00:07.832Z,100819.53
2022-12-09T18:03:17.963Z,100819.38
2022-12-09T18:06:26.151Z,100824.59
2022-12-09T18:09:31.250Z,100819.44
2022-12-09T18:12:34.950Z,100822.91
2022-12-09T18:15:40.572Z,100826.28
2022-12-09T18:18:44.835Z,100831.28
2022-12-09T18:21:49.690Z,100829.63
2022-12-09T18:24:54.773Z,100834.03
2022-12-09T18:27:58.496Z,100827.13
2022-12-09T18:31:06.726Z,100825.31
2022-12-09T18:34:10.468Z,100833.03
2022-12-09T18:37:14.149Z,100835.59
2022-12-09T18:40:23.834Z,100833.75
2022-12-09T18:43:28.316Z,100836.28
2022-12-09T18:46:35.484Z,100838.94
2022-12-09T18:49:39.482Z,100841.41
2022-12-09T18:52:45.372Z,100830.16
2022-12-09T18:55:50.579Z,100837.88
2022-12-09T18:59:10.056Z,100835.22
2022-12-09T19:02:15.134Z,100841.22
2022-12-09T19:05:19.574Z,100837.69
2022-12-09T19:08:23.452Z,100836.03
2022-12-09T19:11:32.760Z,100836.91
2022-12-09T19:14:40.759Z,100839.53
2022-12-09T19:17:46.169Z,100837.78
2022-12-09T19:20:50.076Z,100842.97
2022-12-09T19:24:11.179Z,100843.03
2022-12-09T19:27:19.100Z,100844.75
2022-12-09T19:30:23.003Z,100849.06
2022-12-09T19:33:27.098Z,100860.31
2022-12-09T19:36:34.364Z,100855.06
2022-12-09T19:39:42.138Z,100860.44
2022-12-09T19:42:47.480Z,100862.03
2022-12-09T19:45:51.343Z,100855.25
2022-12-09T19:48:56.546Z,100857.72
2022-12-09T19:52:00.375Z,100853.44
2022-12-09T19:55:04.126Z,100863.72
2022-12-09T19:58:09.454Z,100869.84
2022-12-09T20:01:16.788Z,100872.41
2022-12-09T20:04:48.272Z,100865.63
2022-12-09T20:07:49.306Z,100880.16
2022-12-09T20:10:53.348Z,100873.28
2022-12-09T20:13:59.864Z,100870.53
2022-12-09T20:17:03.515Z,100870.66
2022-12-09T20:20:10.710Z,100873.25
2022-12-09T20:23:15.876Z,100875.91
2022-12-09T20:26:24.262Z,100881.16
2022-12-09T20:29:34.070Z,100881.22
2022-12-09T20:32:40.908Z,100877.84
2022-12-09T20:35:44.602Z,100870.88
2022-12-09T20:38:50.767Z,100876.91
2022-12-09T20:41:54.650Z,100872.63
2022-12-09T20:44:59.721Z,100877.03
2022-12-09T20:48:03.335Z,100883.97
2022-12-09T20:51:09.103Z,100879.63
2022-12-09T20:54:18.777Z,100881.25
2022-12-09T20:57:22.597Z,100880.41
2022-12-09T21:00:27.670Z,100882.97
2022-12-09T21:03:31.573Z,100884.63
2022-12-09T21:06:38.332Z,100886.44
2022-12-09T21:09:42.063Z,100881.34
2022-12-09T21:12:46.070Z,100889.06
2022-12-09T21:15:51.115Z,100893.34
2022-12-09T21:18:57.907Z,100883.97
2022-12-09T21:22:01.649Z,100883.13
2022-12-09T21:25:05.786Z,100889.91
2022-12-09T21:28:09.382Z,100888.19
2022-12-09T21:31:17.205Z,100901.88
2022-12-09T21:34:21.826Z,100890.78
2022-12-09T21:37:25.860Z,100893.41
2022-12-09T21:40:29.821Z,100893.44
2022-12-09T21:43:34.295Z,100887.28
2022-12-09T21:46:39.954Z,100891.59
2022-12-09T21:49:43.533Z,100892.47
2022-12-09T21:52:47.163Z,100889.97
2022-12-09T21:55:51.560Z,100892.38
2022-12-09T21:58:57.573Z,100891.66
2022-12-09T22:02:02.556Z,100894.09
2022-12-09T22:05:07.645Z,100904.50
2022-12-09T22:08:11.229Z,100903.63
2022-12-09T22:11:18.456Z,100902.84
2022-12-09T22:14:22.140Z,100906.34
2022-12-09T22:17:27.146Z,100904.53
2022-12-09T22:23:55.413Z,100902.78
2022-12-09T22:26:59.274Z,100897.63
2022-12-09T22:30:03.285Z,100897.66
2022-12-09T22:33:08.263Z,100901.03
2022-12-09T22:36:14.032Z,100902.97
2022-12-09T22:39:22.220Z,100901.03
2022-12-09T22:42:25.889Z,100904.53
2022-12-09T22:45:29.481Z,100901.88
2022-12-09T22:48:35.907Z,100904.44
2022-12-09T22:51:39.867Z,100904.44
2022-12-09T22:54:43.644Z,100900.94
2022-12-09T22:57:47.414Z,100906.84
2022-12-09T23:00:51.180Z,100902.69
2022-12-09T23:03:57.954Z,100915.53
2022-12-09T23:07:01.714Z,100917.28
2022-12-09T23:10:06.882Z,100916.53
2022-12-09T23:13:11.146Z,100917.31
2022-12-09T23:16:18.498Z,100912.94
2022-12-09T23:19:23.682Z,100914.72
2022-12-09T23:22:27.231Z,100913.06
2022-12-09T23:25:31.045Z,100915.56
2022-12-09T23:28:38.222Z,100913.84
2022-12-09T23:31:43.163Z,100911.34
2022-12-09T23:34:48.194Z,100915.66
2022-12-09T23:37:51.928Z,100908.72
2022-12-09T23:40:55.582Z,100913.09
2022-12-09T23:43:59.735Z,100912.31
2022-12-09T23:47:03.324Z,100917.34
2022-12-09T23:50:09.506Z,100911.34
2022-12-09T23:53:13.314Z,100915.56
2022-12-09T23:56:20.387Z,100917.28
2022-12-09T23:59:24.791Z,100916.47
